Time;durP1;ratioP1;P1;durP2;ratioP2;P2;SDS_P1;SDS_P2;PMS_P1;PMS_P2;Temp;Humidity;BMP_temperature;BMP_pressure;BME280_temperature;BME280_humidity;BME280_pressure;Samples;Min_cycle;Max_cycle;Signal;HPM_P1;HPM_P2
2022/11/25 00:01:23;;;;;;;26.52;12.27;;;2.90;99.90;;;;;;5067548;28;20269;-82
2022/11/25 00:03:50;;;;;;;25.33;11.82;;;2.90;99.90;;;;;;5066282;28;20184;-81
2022/11/25 00:06:17;;;;;;;26.25;10.52;;;3.00;99.90;;;;;;5068844;28;20189;-79
2022/11/25 00:08:44;;;;;;;24.65;11.52;;;3.00;99.90;;;;;;5065981;28;20193;-81
2022/11/25 00:11:11;;;;;;;21.92;11.93;;;3.00;99.90;;;;;;5068984;28;20204;-81
2022/11/25 00:13:37;;;;;;;22.13;11.77;;;3.00;99.90;;;;;;5077132;28;20208;-84
2022/11/25 00:16:09;;;;;;;19.60;10.50;;;3.10;99.90;;;;;;5057889;28;20282;-80
2022/11/25 00:18:34;;;;;;;27.95;12.25;;;3.10;99.90;;;;;;5064995;28;20177;-81
2022/11/25 00:21:12;;;;;;;22.50;10.37;;;3.10;99.90;;;;;;5064417;28;20821;-83
2022/11/25 00:23:38;;;;;;;36.53;10.70;;;3.10;99.90;;;;;;5079618;28;20180;-82
2022/11/25 00:26:12;;;;;;;32.70;11.47;;;3.10;99.90;;;;;;5066859;28;20207;-81
2022/11/25 00:28:40;;;;;;;19.98;11.02;;;3.00;99.90;;;;;;5064436;28;20434;-81
2022/11/25 00:31:20;;;;;;;25.42;11.30;;;3.00;99.90;;;;;;5061516;28;20212;-81
2022/11/25 00:33:46;;;;;;;29.52;12.75;;;2.90;99.90;;;;;;5062293;28;20190;-81
2022/11/25 00:36:32;;;;;;;27.38;10.85;;;2.90;99.90;;;;;;5066584;28;20169;-80
2022/11/25 00:39:02;;;;;;;28.23;10.55;;;2.80;99.90;;;;;;5078177;28;20199;-80
2022/11/25 00:47:00;;;;;;;28.38;10.77;;;2.60;99.90;;;;;;5064608;28;20249;-81
2022/11/25 00:49:26;;;;;;;23.50;12.07;;;2.60;99.90;;;;;;5068113;28;21073;-82
2022/11/25 00:51:51;;;;;;;27.37;13.00;;;2.60;99.90;;;;;;5060835;28;20193;-81
2022/11/25 00:54:17;;;;;;;20.40;9.63;;;2.60;99.90;;;;;;5066935;28;20467;-79
2022/11/25 00:56:42;;;;;;;24.73;11.43;;;2.60;99.90;;;;;;5066668;28;20183;-82
2022/11/25 00:59:08;;;;;;;19.03;10.23;;;2.60;99.90;;;;;;5066320;28;20581;-81
2022/11/25 01:01:34;;;;;;;25.73;11.50;;;2.70;99.90;;;;;;5065829;28;20193;-82
2022/11/25 01:04:00;;;;;;;23.65;10.75;;;2.70;99.90;;;;;;5059000;28;21132;-83
2022/11/25 01:06:26;;;;;;;17.30;9.57;;;2.70;99.90;;;;;;5066129;28;20183;-81
2022/11/25 01:08:52;;;;;;;16.20;10.07;;;2.70;99.90;;;;;;5070416;28;20208;-82
2022/11/25 01:11:19;;;;;;;28.10;11.15;;;2.80;99.90;;;;;;5068113;28;20287;-82
2022/11/25 01:13:45;;;;;;;23.73;10.77;;;2.90;99.90;;;;;;5064658;28;20636;-83
2022/11/25 01:16:14;;;;;;;11.10;6.40;;;2.80;99.90;;;;;;5066558;28;20185;-82
2022/11/25 01:18:40;;;;;;;16.13;4.70;;;3.20;99.90;;;;;;5066825;28;20446;-82
2022/11/25 01:21:15;;;;;;;11.80;5.65;;;3.70;99.90;;;;;;5065806;28;20219;-83
2022/11/25 01:23:41;;;;;;;23.02;8.02;;;4.00;99.90;;;;;;5062702;28;20189;-82
2022/11/25 01:26:12;;;;;;;204.32;28.20;;;4.10;99.90;;;;;;5066686;28;20176;-85
2022/11/25 01:28:38;;;;;;;322.58;36.28;;;3.60;99.90;;;;;;5064260;28;20185;-84
2022/11/25 01:31:24;;;;;;;21.90;9.55;;;3.30;99.90;;;;;;5063106;28;20726;-81
2022/11/25 01:33:56;;;;;;;12.15;6.95;;;3.20;99.90;;;;;;5064569;28;20200;-81
2022/11/25 01:36:23;;;;;;;19.65;7.90;;;3.20;99.90;;;;;;5067208;28;20176;-82
2022/11/25 01:38:50;;;;;;;10.07;5.50;;;3.40;99.90;;;;;;5066713;28;20188;-82
2022/11/25 01:41:16;;;;;;;35.40;12.25;;;3.70;99.90;;;;;;5065716;28;20261;-83
2022/11/25 01:43:42;;;;;;;105.77;17.70;;;3.20;99.90;;;;;;5065101;28;20192;-82
2022/11/25 01:46:29;;;;;;;175.17;23.10;;;3.00;99.90;;;;;;5068555;28;20188;-82
2022/11/25 01:49:00;;;;;;;16.77;9.30;;;3.00;99.90;;;;;;5064511;28;20181;-82
2022/11/25 01:51:35;;;;;;;34.33;12.70;;;3.00;99.90;;;;;;5065199;28;20196;-79
2022/11/25 01:54:03;;;;;;;23.70;12.88;;;2.70;99.90;;;;;;5072577;28;20210;-82
2022/11/25 01:56:34;;;;;;;17.85;12.65;;;2.70;99.90;;;;;;5060224;28;20191;-81
2022/11/25 01:59:01;;;;;;;27.90;12.30;;;2.50;99.90;;;;;;5067487;28;20200;-81
2022/11/25 02:01:26;;;;;;;28.13;12.20;;;2.40;99.90;;;;;;5059875;28;20279;-82
2022/11/25 02:03:55;;;;;;;20.87;10.80;;;2.30;99.90;;;;;;5062707;28;21086;-80
2022/11/25 02:06:22;;;;;;;27.80;12.25;;;2.40;99.90;;;;;;5066259;28;20185;-82
2022/11/25 02:08:52;;;;;;;19.95;8.85;;;2.30;99.90;;;;;;5061571;28;20206;-84
2022/11/25 02:11:19;;;;;;;19.90;12.38;;;2.40;99.90;;;;;;5062205;28;20282;-81
2022/11/25 02:13:47;;;;;;;21.48;10.75;;;2.50;99.90;;;;;;5060646;28;20741;-81
2022/11/25 02:16:13;;;;;;;20.98;11.00;;;2.50;99.90;;;;;;5078043;28;20192;-82
2022/11/25 02:18:39;;;;;;;19.80;11.03;;;2.40;99.90;;;;;;5060821;28;20184;-81
2022/11/25 02:21:06;;;;;;;26.97;11.97;;;2.30;99.90;;;;;;5064001;28;20537;-81
2022/11/25 02:23:50;;;;;;;30.55;11.05;;;2.20;99.90;;;;;;5060918;28;20970;-81
2022/11/25 02:26:16;;;;;;;18.85;9.07;;;2.10;99.90;;;;;;5064384;28;20180;-82
2022/11/25 02:28:42;;;;;;;22.23;8.75;;;2.40;99.90;;;;;;5060433;28;20232;-82
2022/11/25 02:31:09;;;;;;;23.88;9.20;;;2.30;99.90;;;;;;5055158;28;20217;-80
2022/11/25 02:33:35;;;;;;;18.30;10.27;;;2.50;99.90;;;;;;5060894;28;20201;-80
2022/11/25 02:36:05;;;;;;;19.17;9.57;;;2.60;99.90;;;;;;5060227;28;20248;-81
2022/11/25 02:38:36;;;;;;;16.83;8.80;;;2.50;99.90;;;;;;5057809;28;20193;-82
2022/11/25 02:41:09;;;;;;;22.98;10.63;;;2.50;99.90;;;;;;5056501;28;20196;-82
2022/11/25 02:43:34;;;;;;;25.27;14.10;;;2.40;99.90;;;;;;5060611;28;20204;-82
2022/11/25 02:46:06;;;;;;;22.40;10.40;;;2.40;99.90;;;;;;5063010;28;20218;-84
2022/11/25 02:48:34;;;;;;;16.45;9.65;;;2.40;99.90;;;;;;5066578;28;20171;-81
2022/11/25 02:51:00;;;;;;;19.17;9.05;;;2.40;99.90;;;;;;5063429;28;20768;-83
2022/11/25 02:53:26;;;;;;;20.27;9.88;;;2.40;99.90;;;;;;5068620;28;20247;-82
2022/11/25 02:55:51;;;;;;;16.37;10.87;;;2.40;99.90;;;;;;5064456;28;20946;-82
2022/11/25 02:58:17;;;;;;;25.43;11.23;;;2.30;99.90;;;;;;5070897;28;20180;-80
2022/11/25 03:00:43;;;;;;;19.20;10.67;;;2.40;99.90;;;;;;5068123;28;20204;-81
2022/11/25 03:03:09;;;;;;;24.80;9.70;;;2.30;99.90;;;;;;5069151;28;20208;-83
2022/11/25 03:05:35;;;;;;;19.83;10.05;;;2.30;99.90;;;;;;5072868;28;20176;-82
2022/11/25 03:08:02;;;;;;;26.23;10.40;;;2.50;99.90;;;;;;5060979;28;20243;-84
2022/11/25 03:10:27;;;;;;;23.83;9.77;;;2.50;99.90;;;;;;5078234;28;20207;-84
2022/11/25 03:12:53;;;;;;;15.33;9.20;;;2.50;99.90;;;;;;5066586;28;20973;-83
2022/11/25 03:15:19;;;;;;;15.17;9.03;;;2.60;99.90;;;;;;5068775;28;20176;-82
2022/11/25 03:17:44;;;;;;;17.03;9.80;;;2.50;99.90;;;;;;5064648;28;20742;-84
2022/11/25 03:20:12;;;;;;;26.07;9.57;;;2.40;99.90;;;;;;5072268;28;20387;-83
2022/11/25 03:22:38;;;;;;;17.55;9.55;;;2.40;99.90;;;;;;5069026;28;20753;-84
2022/11/25 03:25:04;;;;;;;18.50;9.82;;;2.40;99.90;;;;;;5069951;28;20168;-84
2022/11/25 03:27:30;;;;;;;22.13;10.20;;;2.40;99.90;;;;;;5063015;28;20809;-84
2022/11/25 03:29:55;;;;;;;17.20;8.30;;;2.50;99.90;;;;;;5070675;28;20523;-84
2022/11/25 03:32:21;;;;;;;20.40;10.13;;;2.50;99.90;;;;;;5064404;28;20205;-82
2022/11/25 03:34:46;;;;;;;20.27;9.20;;;2.60;99.90;;;;;;5063264;28;20739;-82
2022/11/25 03:37:12;;;;;;;14.00;9.30;;;2.60;99.90;;;;;;5063982;28;20502;-82
2022/11/25 03:39:37;;;;;;;13.27;6.93;;;2.80;99.90;;;;;;5066578;28;20192;-82
2022/11/25 03:42:03;;;;;;;18.47;8.33;;;2.80;99.90;;;;;;5064045;28;20234;-81
2022/11/25 03:44:29;;;;;;;21.90;8.70;;;2.90;99.90;;;;;;5064353;28;20173;-83
2022/11/25 03:46:54;;;;;;;18.30;10.53;;;;;;;;;;5066801;28;20184;-82
2022/11/25 03:49:20;;;;;;;16.53;9.20;;;2.70;99.90;;;;;;5068386;28;20203;-82
2022/11/25 03:51:46;;;;;;;17.23;9.20;;;2.60;99.90;;;;;;5067423;28;20590;-83
2022/11/25 03:54:12;;;;;;;14.77;9.13;;;;;;;;;;5069097;28;20181;-82
2022/11/25 03:56:38;;;;;;;17.73;9.23;;;2.60;99.90;;;;;;5066440;28;20184;-82
2022/11/25 03:59:04;;;;;;;23.83;10.40;;;2.50;99.90;;;;;;5066340;28;20457;-80
2022/11/25 04:01:29;;;;;;;14.77;9.53;;;2.50;99.90;;;;;;5065514;28;20201;-79
2022/11/25 04:03:55;;;;;;;17.60;9.03;;;2.60;99.90;;;;;;5064683;28;20183;-81
2022/11/25 04:06:22;;;;;;;20.63;9.77;;;2.70;99.90;;;;;;5065139;28;20184;-83
2022/11/25 04:08:49;;;;;;;20.95;9.85;;;2.70;99.90;;;;;;5066211;28;20181;-83
2022/11/25 04:11:14;;;;;;;15.20;8.55;;;2.80;99.90;;;;;;5066681;28;20742;-84
2022/11/25 04:13:40;;;;;;;12.70;8.50;;;2.80;99.90;;;;;;5065330;28;20208;-82
2022/11/25 04:16:05;;;;;;;17.93;10.50;;;2.70;99.90;;;;;;5067270;28;20187;-81
2022/11/25 04:18:31;;;;;;;24.00;9.80;;;2.60;99.90;;;;;;5065358;28;20188;-83
2022/11/25 04:20:57;;;;;;;18.50;9.00;;;2.70;99.90;;;;;;5061754;28;20662;-82
2022/11/25 04:23:23;;;;;;;28.47;8.73;;;2.70;99.90;;;;;;5066620;28;20668;-80
2022/11/25 04:25:49;;;;;;;15.98;8.90;;;2.90;99.90;;;;;;5067832;28;20432;-82
2022/11/25 04:28:15;;;;;;;14.65;9.48;;;3.00;99.90;;;;;;5065967;28;20187;-83
2022/11/25 04:30:41;;;;;;;19.70;11.43;;;3.10;99.90;;;;;;5067785;28;20571;-82
2022/11/25 04:33:06;;;;;;;30.67;12.53;;;3.20;99.90;;;;;;5066566;28;20544;-83
2022/11/25 04:35:32;;;;;;;27.13;10.13;;;3.30;99.90;;;;;;5064164;28;20173;-81
2022/11/25 04:37:57;;;;;;;15.53;9.20;;;3.30;99.90;;;;;;5068361;28;20183;-81
2022/11/25 04:40:23;;;;;;;10.70;5.50;;;3.30;99.90;;;;;;5068370;28;20638;-80
2022/11/25 04:42:49;;;;;;;23.13;9.90;;;3.30;99.90;;;;;;5066947;28;20198;-80
2022/11/25 04:45:16;;;;;;;11.97;8.80;;;3.30;99.90;;;;;;5066831;28;20431;-81
2022/11/25 04:47:42;;;;;;;22.35;10.23;;;3.20;99.90;;;;;;5065303;28;20276;-82
2022/11/25 04:50:13;;;;;;;18.05;8.15;;;3.10;99.90;;;;;;5063487;28;20191;-80
2022/11/25 04:52:39;;;;;;;20.70;9.43;;;3.10;99.90;;;;;;5065076;28;20188;-80
2022/11/25 04:55:05;;;;;;;18.33;7.00;;;3.20;99.90;;;;;;5065109;28;20226;-81
2022/11/25 04:57:30;;;;;;;13.93;8.55;;;3.30;99.90;;;;;;5065242;28;20172;-81
2022/11/25 04:59:56;;;;;;;23.27;11.67;;;3.40;99.90;;;;;;5063807;28;20237;-80
2022/11/25 05:02:24;;;;;;;28.87;10.20;;;3.40;99.90;;;;;;5062676;28;20694;-80
2022/11/25 05:04:51;;;;;;;15.90;8.00;;;3.30;99.90;;;;;;5062242;28;20207;-83
2022/11/25 05:07:19;;;;;;;23.40;8.82;;;3.30;99.90;;;;;;5058924;28;20191;-81
2022/11/25 05:09:44;;;;;;;19.35;9.75;;;3.20;99.90;;;;;;5064692;28;20249;-79
2022/11/25 05:12:14;;;;;;;18.60;9.97;;;3.00;99.90;;;;;;5058996;28;20203;-82
2022/11/25 05:14:40;;;;;;;15.95;9.50;;;2.90;99.90;;;;;;5064640;28;20416;-83
2022/11/25 05:17:06;;;;;;;16.80;9.07;;;2.80;99.90;;;;;;5064844;28;20181;-81
2022/11/25 05:19:34;;;;;;;21.55;11.02;;;2.80;99.90;;;;;;5062100;28;20203;-82
2022/11/25 05:22:00;;;;;;;21.52;11.18;;;2.80;99.90;;;;;;5067249;28;20200;-80
2022/11/25 05:24:26;;;;;;;17.45;11.05;;;2.90;99.90;;;;;;5062987;28;20176;-82
2022/11/25 05:26:52;;;;;;;20.40;10.10;;;2.80;99.90;;;;;;5077877;28;20460;-80
2022/11/25 05:29:18;;;;;;;27.20;14.40;;;2.90;99.90;;;;;;5082721;28;20937;-79
2022/11/25 05:31:44;;;;;;;26.23;13.20;;;;;;;;;;5084567;28;20442;-83
2022/11/25 05:34:09;;;;;;;12.70;5.70;;;2.70;99.90;;;;;;5087680;22;20710;-84
2022/11/25 05:36:35;;;;;;;23.83;7.47;;;3.10;99.90;;;;;;5065665;28;20189;-84
2022/11/25 05:39:01;;;;;;;12.57;6.27;;;3.10;99.90;;;;;;5067689;28;20191;-84
2022/11/25 05:41:27;;;;;;;32.03;8.10;;;;;;;;;;5062154;28;20445;-83
2022/11/25 05:43:53;;;;;;;10.35;6.47;;;3.10;99.90;;;;;;5061126;28;20451;-83
2022/11/25 05:46:19;;;;;;;11.70;6.60;;;3.20;99.90;;;;;;5067740;28;20604;-84
2022/11/25 05:48:45;;;;;;;14.63;6.50;;;;;;;;;;5065257;28;20249;-83
2022/11/25 05:51:10;;;;;;;13.70;6.37;;;3.20;99.90;;;;;;5063991;28;20180;-83
2022/11/25 05:53:36;;;;;;;15.27;6.33;;;3.30;99.90;;;;;;5063718;28;20547;-83
2022/11/25 05:56:04;;;;;;;13.23;6.93;;;3.40;99.90;;;;;;5059653;28;20192;-83
2022/11/25 05:58:32;;;;;;;10.05;5.40;;;3.40;99.90;;;;;;5055307;28;20525;-83
2022/11/25 06:00:58;;;;;;;10.43;6.45;;;3.50;99.90;;;;;;5054111;28;20715;-83
2022/11/25 06:03:24;;;;;;;15.15;5.97;;;3.80;99.90;;;;;;5060837;28;20216;-83
2022/11/25 06:05:50;;;;;;;13.60;6.10;;;3.80;99.90;;;;;;5052797;28;20180;-84
2022/11/25 06:08:16;;;;;;;17.83;8.90;;;3.80;99.90;;;;;;5058225;28;20244;-83
2022/11/25 06:10:42;;;;;;;13.70;8.03;;;3.80;99.90;;;;;;5056455;28;21226;-84
2022/11/25 06:13:08;;;;;;;12.80;6.60;;;3.60;99.90;;;;;;5060733;28;20213;-83
2022/11/25 06:15:39;;;;;;;27.55;8.93;;;3.50;99.90;;;;;;5062453;28;20637;-83
2022/11/25 06:18:04;;;;;;;13.90;8.27;;;3.30;99.90;;;;;;5058618;28;20177;-84
2022/11/25 06:20:30;;;;;;;14.17;8.37;;;;;;;;;;5061671;28;20207;-83
2022/11/25 06:22:57;;;;;;;16.90;9.00;;;2.80;99.90;;;;;;5067121;28;20176;-84
2022/11/25 06:25:23;;;;;;;18.52;10.27;;;2.80;99.90;;;;;;5060386;28;20422;-83
2022/11/25 06:27:48;;;;;;;18.17;10.20;;;2.80;99.90;;;;;;5060726;28;20211;-83
2022/11/25 06:30:14;;;;;;;14.33;6.33;;;2.60;99.90;;;;;;5065667;28;20435;-83
2022/11/25 06:32:40;;;;;;;13.23;6.37;;;;;;;;;;5067288;28;20203;-83
2022/11/25 06:35:06;;;;;;;13.20;8.80;;;2.90;99.90;;;;;;5061399;28;20450;-84
2022/11/25 06:37:32;;;;;;;22.20;8.43;;;2.90;99.90;;;;;;5065066;28;20903;-83
2022/11/25 06:39:58;;;;;;;15.02;8.68;;;2.80;99.90;;;;;;5065432;28;20211;-83
2022/11/25 06:42:23;;;;;;;19.03;9.57;;;2.80;99.90;;;;;;5064950;28;20223;-84
2022/11/25 06:44:49;;;;;;;15.57;7.97;;;2.70;99.90;;;;;;5064879;28;20215;-84
2022/11/25 06:47:14;;;;;;;12.13;6.67;;;2.60;99.90;;;;;;5062603;28;20231;-83
2022/11/25 06:49:40;;;;;;;9.70;4.83;;;2.70;99.90;;;;;;5067846;28;20225;-84
2022/11/25 06:52:06;;;;;;;17.20;8.80;;;3.10;99.90;;;;;;5066724;28;20407;-84
2022/11/25 06:54:31;;;;;;;12.27;5.55;;;3.20;99.90;;;;;;5064843;28;20216;-84
2022/11/25 06:56:57;;;;;;;13.47;6.30;;;2.80;99.90;;;;;;5062444;28;20660;-84
2022/11/25 06:59:23;;;;;;;10.77;5.13;;;3.20;99.90;;;;;;5063492;28;20177;-83
2022/11/25 07:01:48;;;;;;;14.60;5.60;;;3.40;99.90;;;;;;5064763;28;20218;-84
2022/11/25 07:04:14;;;;;;;9.37;6.00;;;3.40;99.90;;;;;;5064495;28;20215;-83
2022/11/25 07:06:39;;;;;;;18.93;9.80;;;3.40;99.90;;;;;;5066316;28;20267;-84
2022/11/25 07:09:06;;;;;;;22.53;9.20;;;3.30;99.90;;;;;;5061857;28;20243;-83
2022/11/25 07:11:36;;;;;;;12.70;8.15;;;3.30;99.90;;;;;;5065147;28;20581;-83
2022/11/25 07:14:10;;;;;;;19.08;9.32;;;3.10;99.90;;;;;;5068401;28;20236;-84
2022/11/25 07:16:37;;;;;;;18.63;7.15;;;3.10;99.90;;;;;;5062739;28;20223;-84
2022/11/25 07:19:03;;;;;;;19.52;8.38;;;3.20;99.90;;;;;;5061568;28;20221;-83
2022/11/25 07:21:33;;;;;;;10.70;7.30;;;3.60;99.90;;;;;;5065012;28;20185;-82
2022/11/25 07:24:00;;;;;;;17.75;7.95;;;3.60;99.90;;;;;;5071151;28;21066;-83
2022/11/25 07:26:28;;;;;;;11.15;7.97;;;4.30;99.90;;;;;;5066654;28;20195;-83
2022/11/25 07:28:57;;;;;;;14.05;8.85;;;4.60;99.90;;;;;;5067782;28;20188;-84
2022/11/25 07:31:26;;;;;;;10.93;7.78;;;5.10;99.90;;;;;;5070101;28;20173;-84
2022/11/25 07:33:56;;;;;;;12.75;6.90;;;5.80;99.90;;;;;;5069914;28;20654;-83
2022/11/25 07:36:23;;;;;;;13.98;7.25;;;5.70;99.90;;;;;;5069136;28;20648;-84
2022/11/25 07:38:49;;;;;;;12.32;7.22;;;5.40;99.90;;;;;;5070364;28;20188;-84
2022/11/25 07:41:20;;;;;;;10.47;6.10;;;5.40;99.90;;;;;;5069607;28;20184;-83
2022/11/25 07:43:48;;;;;;;8.18;6.18;;;5.40;99.90;;;;;;5063011;28;20989;-83
2022/11/25 07:46:18;;;;;;;10.02;6.25;;;5.40;99.90;;;;;;5071269;28;20525;-83
2022/11/25 07:48:44;;;;;;;11.55;6.72;;;5.20;99.90;;;;;;5070035;28;20208;-84
2022/11/25 07:51:15;;;;;;;13.88;7.40;;;5.10;99.90;;;;;;5069519;28;20176;-84
2022/11/25 07:53:40;;;;;;;18.55;7.80;;;4.40;99.90;;;;;;5064456;28;20205;-84
2022/11/25 07:56:06;;;;;;;12.20;6.10;;;4.20;99.90;;;;;;5066483;28;20687;-84
2022/11/25 07:58:32;;;;;;;11.10;7.10;;;4.20;99.90;;;;;;5060131;28;20912;-83
2022/11/25 08:01:02;;;;;;;12.80;6.83;;;4.20;99.90;;;;;;5064548;28;20874;-84
2022/11/25 08:03:27;;;;;;;12.80;8.32;;;4.60;99.90;;;;;;5064745;28;20213;-83
2022/11/25 08:05:53;;;;;;;12.80;9.03;;;;;;;;;;5060892;28;20188;-83
2022/11/25 08:08:19;;;;;;;21.87;8.93;;;;;;;;;;5061725;28;20242;-83
2022/11/25 08:10:45;;;;;;;12.67;9.07;;;4.90;99.90;;;;;;5063343;28;20928;-84
2022/11/25 08:13:10;;;;;;;24.13;8.40;;;5.00;99.90;;;;;;5065965;28;20496;-84
2022/11/25 08:15:36;;;;;;;10.00;6.90;;;4.90;99.90;;;;;;5065090;28;20282;-84
2022/11/25 08:18:01;;;;;;;13.50;7.37;;;4.90;99.90;;;;;;5064492;28;20185;-83
2022/11/25 08:20:27;;;;;;;20.57;6.70;;;5.00;99.90;;;;;;5061504;28;20230;-84
2022/11/25 08:22:53;;;;;;;13.13;7.33;;;5.20;99.90;;;;;;5063611;28;20691;-84
2022/11/25 08:25:19;;;;;;;15.47;7.83;;;5.10;99.90;;;;;;5066337;28;20443;-83
2022/11/25 08:27:44;;;;;;;10.97;7.00;;;5.00;99.90;;;;;;5065802;28;20204;-83
2022/11/25 08:30:10;;;;;;;12.80;7.57;;;5.00;99.90;;;;;;5065011;28;20212;-83
2022/11/25 08:32:37;;;;;;;10.40;6.67;;;4.90;99.90;;;;;;5064121;28;20637;-83
2022/11/25 08:35:04;;;;;;;14.23;8.27;;;4.90;99.90;;;;;;5064356;28;20656;-83
2022/11/25 08:37:30;;;;;;;17.17;8.50;;;4.80;99.90;;;;;;5066757;28;20180;-84
2022/11/25 08:39:55;;;;;;;13.82;9.20;;;4.80;99.90;;;;;;5084211;28;20240;-83
2022/11/25 08:42:21;;;;;;;15.23;7.80;;;4.90;99.90;;;;;;5058880;28;20266;-84
2022/11/25 08:44:51;;;;;;;17.00;9.43;;;5.30;99.90;;;;;;5058892;28;20211;-84
2022/11/25 08:47:17;;;;;;;16.20;8.50;;;5.30;99.90;;;;;;5061364;28;20210;-83
2022/11/25 08:49:42;;;;;;;11.13;8.30;;;6.00;99.90;;;;;;5059192;28;20200;-84
2022/11/25 08:52:09;;;;;;;18.07;8.27;;;8.00;99.90;;;;;;5063761;28;20192;-83
2022/11/25 08:54:35;;;;;;;14.32;6.68;;;;;;;;;;5066623;28;20201;-83
2022/11/25 08:57:01;;;;;;;11.53;7.03;;;;;;;;;;5072329;28;20188;-85
2022/11/25 08:59:27;;;;;;;11.85;6.15;;;;;;;;;;5065834;28;20489;-84
2022/11/25 09:01:54;;;;;;;12.03;6.17;;;;;;;;;;5066692;28;20243;-84
2022/11/25 09:04:20;;;;;;;11.63;6.47;;;;;;;;;;5061023;28;20519;-84
2022/11/25 09:06:46;;;;;;;10.63;6.63;;;;;;;;;;5066222;28;20191;-84
2022/11/25 09:09:12;;;;;;;14.47;7.93;;;;;;;;;;5063560;28;20441;-84
2022/11/25 09:11:38;;;;;;;11.83;7.17;;;;;;;;;;5060445;28;20435;-84
2022/11/25 09:14:03;;;;;;;10.40;6.97;;;8.40;99.90;;;;;;5064863;28;20965;-84
2022/11/25 09:16:29;;;;;;;13.90;7.80;;;;;;;;;;5067250;28;20271;-83
2022/11/25 09:18:55;;;;;;;9.18;7.35;;;7.10;99.90;;;;;;5061636;28;20318;-83
2022/11/25 09:21:20;;;;;;;19.13;8.27;;;7.10;99.90;;;;;;5063755;28;20709;-83
2022/11/25 09:23:49;;;;;;;9.13;6.63;;;7.10;99.90;;;;;;5065000;28;20197;-83
2022/11/25 09:26:23;;;;;;;11.70;6.72;;;7.30;99.90;;;;;;5063759;28;20191;-84
2022/11/25 09:28:49;;;;;;;10.73;7.10;;;7.60;99.90;;;;;;5062051;28;20184;-84
2022/11/25 09:31:15;;;;;;;14.87;8.40;;;;;;;;;;5065078;28;20192;-84
2022/11/25 09:33:41;;;;;;;14.02;7.75;;;;;;;;;;5065286;28;20227;-83
2022/11/25 09:36:07;;;;;;;11.38;7.35;;;;;;;;;;5060346;28;20262;-83
2022/11/25 09:38:33;;;;;;;15.33;8.73;;;9.00;99.90;;;;;;5063221;28;20173;-83
2022/11/25 09:41:09;;;;;;;16.60;8.70;;;8.10;99.90;;;;;;5065091;28;20454;-83
2022/11/25 09:46:46;;;;;;;12.75;7.40;;;8.00;99.90;;;;;;5065101;28;20569;-83
2022/11/25 09:49:49;;;;;;;11.70;7.40;;;7.60;99.90;;;;;;5063599;28;20208;-83
2022/11/25 09:52:28;;;;;;;17.23;7.35;;;7.50;99.90;;;;;;5064220;28;20239;-84
2022/11/25 09:55:14;;;;;;;17.45;7.50;;;7.50;99.90;;;;;;5064913;28;20208;-84
2022/11/25 09:58:15;;;;;;;18.13;8.30;;;7.60;99.90;;;;;;5061367;28;20180;-84
2022/11/25 10:00:44;;;;;;;15.50;8.05;;;7.40;99.90;;;;;;5055488;28;20180;-84
2022/11/25 10:03:37;;;;;;;17.17;7.45;;;7.30;99.90;;;;;;5062022;28;20207;-83
2022/11/25 10:06:17;;;;;;;15.93;7.95;;;7.30;99.90;;;;;;5062953;28;20482;-84
2022/11/25 10:08:46;;;;;;;13.38;7.97;;;7.30;99.90;;;;;;5066043;28;20184;-84
2022/11/25 10:11:49;;;;;;;16.20;8.40;;;6.80;99.90;;;;;;5060506;28;20173;-83
2022/11/25 10:14:30;;;;;;;13.45;7.55;;;6.60;99.90;;;;;;5059882;28;20524;-84
2022/11/25 10:17:13;;;;;;;19.00;7.80;;;6.60;99.90;;;;;;5057610;28;20172;-83
2022/11/25 10:19:45;;;;;;;16.70;8.57;;;6.50;99.90;;;;;;5059735;28;20238;-83
2022/11/25 10:22:25;;;;;;;14.60;8.50;;;6.50;99.90;;;;;;5064628;28;20222;-83
2022/11/25 10:24:55;;;;;;;17.63;6.95;;;6.50;99.90;;;;;;5068898;28;20199;-83
2022/11/25 10:27:27;;;;;;;15.10;9.93;;;6.50;99.90;;;;;;5061675;28;20176;-83
2022/11/25 10:30:00;;;;;;;14.48;8.05;;;6.60;99.90;;;;;;5062828;28;20180;-84
2022/11/25 10:32:36;;;;;;;12.38;7.38;;;6.80;99.90;;;;;;5065232;28;20224;-84
2022/11/25 10:35:10;;;;;;;10.38;8.48;;;6.80;99.90;;;;;;5065725;28;20306;-83
2022/11/25 10:37:41;;;;;;;16.17;7.90;;;6.90;99.90;;;;;;5077762;28;20279;-83
2022/11/25 10:40:13;;;;;;;19.52;8.60;;;7.20;99.90;;;;;;5069395;28;20180;-83
2022/11/25 10:42:39;;;;;;;16.17;10.30;;;7.50;99.90;;;;;;5062814;28;20181;-84
2022/11/25 10:45:07;;;;;;;24.27;13.03;;;7.80;99.90;;;;;;5064061;28;20265;-83
2022/11/25 10:47:33;;;;;;;20.65;9.68;;;7.70;99.90;;;;;;5068046;28;20223;-84
2022/11/25 10:50:05;;;;;;;16.03;8.70;;;7.90;99.90;;;;;;5068183;28;20227;-84
2022/11/25 10:52:36;;;;;;;13.35;7.95;;;7.80;99.90;;;;;;5064706;28;20292;-83
2022/11/25 10:55:10;;;;;;;21.90;8.23;;;7.60;99.90;;;;;;5059956;28;20626;-84
2022/11/25 10:57:35;;;;;;;13.93;8.13;;;7.60;99.90;;;;;;5061590;28;20196;-84
2022/11/25 11:00:03;;;;;;;18.70;8.60;;;7.40;99.90;;;;;;5061414;28;20221;-84
2022/11/25 11:02:39;;;;;;;14.50;9.27;;;7.40;99.90;;;;;;5061756;28;20855;-84
2022/11/25 11:05:07;;;;;;;64.07;22.98;;;7.40;99.90;;;;;;5063572;28;20204;-84
2022/11/25 11:07:36;;;;;;;29.17;11.00;;;7.40;99.90;;;;;;5065533;28;20606;-84
2022/11/25 11:10:22;;;;;;;25.33;10.63;;;7.50;99.90;;;;;;5062727;28;20556;-84
2022/11/25 11:12:54;;;;;;;29.45;12.52;;;7.70;99.90;;;;;;5074719;28;20287;-84
2022/11/25 11:15:22;;;;;;;29.33;12.75;;;7.90;99.90;;;;;;5065198;28;20180;-84
2022/11/25 11:17:48;;;;;;;26.02;12.38;;;7.90;99.90;;;;;;5068205;28;20333;-84
2022/11/25 11:20:13;;;;;;;22.27;13.87;;;7.90;99.90;;;;;;5068993;28;20744;-84
2022/11/25 11:22:54;;;;;;;15.07;11.37;;;8.00;99.90;;;;;;5083483;28;20188;-84
2022/11/25 11:25:20;;;;;;;15.13;7.40;;;7.80;99.90;;;;;;5064439;28;20524;-84
2022/11/25 11:27:47;;;;;;;3.33;2.43;;;7.80;99.90;;;;;;5065611;28;20310;-83
2022/11/25 11:30:19;;;;;;;13.07;5.13;;;7.80;99.90;;;;;;5069593;28;20271;-84
2022/11/25 11:32:56;;;;;;;15.48;4.28;;;7.90;99.90;;;;;;5067691;28;20240;-84
2022/11/25 11:35:43;;;;;;;4.22;1.58;;;7.90;99.90;;;;;;5061666;22;20224;-80
2022/11/25 11:38:30;;;;;;;6.38;3.22;;;7.80;99.90;;;;;;5029669;28;21339;-82
2022/11/25 11:41:07;;;;;;;8.38;3.65;;;7.70;99.90;;;;;;5041700;28;20208;-83
2022/11/25 11:43:40;;;;;;;7.28;2.80;;;7.70;99.90;;;;;;5043458;28;20292;-86
2022/11/25 11:46:31;;;;;;;8.00;3.88;;;7.70;99.90;;;;;;5036296;28;20439;-82
2022/11/25 11:49:15;;;;;;;6.95;2.50;;;7.70;99.90;;;;;;5054997;28;20181;-83
2022/11/25 11:52:02;;;;;;;3.75;2.80;;;7.70;99.90;;;;;;5053618;28;20253;-84
2022/11/25 11:54:48;;;;;;;5.35;2.55;;;7.80;99.90;;;;;;5063191;28;20186;-80
2022/11/25 11:57:51;;;;;;;3.65;2.70;;;7.70;99.90;;;;;;5054028;28;20192;-85
2022/11/25 12:00:19;;;;;;;5.70;2.90;;;7.70;99.90;;;;;;5065820;28;20200;-83
2022/11/25 12:03:09;;;;;;;5.43;3.05;;;7.70;99.90;;;;;;5037007;28;20243;-82
2022/11/25 12:05:36;;;;;;;4.97;3.67;;;7.70;99.90;;;;;;5051647;28;20188;-83
2022/11/25 12:08:17;;;;;;;6.55;3.05;;;7.70;99.90;;;;;;5049045;28;20177;-83
2022/11/25 12:11:01;;;;;;;4.40;2.92;;;7.70;99.90;;;;;;5046400;28;20752;-86
2022/11/25 12:13:39;;;;;;;6.25;1.67;;;7.70;99.90;;;;;;5033048;28;20304;-82
2022/11/25 12:16:18;;;;;;;8.75;2.92;;;7.70;99.90;;;;;;5045562;28;20186;-86
2022/11/25 12:19:16;;;;;;;6.57;3.20;;;7.70;99.90;;;;;;5032961;28;20186;-84
2022/11/25 12:21:56;;;;;;;5.30;2.67;;;7.70;99.90;;;;;;5021410;28;20192;-84
2022/11/25 12:24:48;;;;;;;4.93;3.33;;;7.70;99.90;;;;;;5039068;28;20712;-81
2022/11/25 12:27:20;;;;;;;5.22;2.92;;;7.80;99.90;;;;;;5041799;28;20193;-83
2022/11/25 12:29:52;;;;;;;3.58;3.03;;;7.80;99.90;;;;;;5025677;28;20275;-79
2022/11/25 12:32:37;;;;;;;9.60;4.10;;;7.90;99.90;;;;;;5033595;28;20917;-85
2022/11/25 12:35:17;;;;;;;6.18;3.53;;;8.00;99.90;;;;;;5040868;28;20225;-81
2022/11/25 12:38:03;;;;;;;6.57;3.92;;;7.90;99.90;;;;;;5044342;28;20182;-82
2022/11/25 12:40:52;;;;;;;7.75;4.10;;;8.00;99.90;;;;;;5028756;28;20189;-84
2022/11/25 12:43:36;;;;;;;5.85;3.90;;;8.10;99.90;;;;;;5033197;28;20311;-85
2022/11/25 12:46:09;;;;;;;8.90;3.95;;;8.10;99.90;;;;;;5031845;28;20245;-81
2022/11/25 12:48:39;;;;;;;13.30;3.88;;;8.20;99.90;;;;;;5030020;28;20185;-85
2022/11/25 12:51:37;;;;;;;13.63;4.05;;;8.20;99.90;;;;;;5026970;28;20189;-84
2022/11/25 12:54:12;;;;;;;6.35;4.82;;;8.20;99.90;;;;;;5035256;28;20243;-83
2022/11/25 12:57:04;;;;;;;10.05;5.35;;;8.40;99.90;;;;;;5037143;28;20561;-82
2022/11/25 12:59:51;;;;;;;9.63;4.10;;;8.50;99.90;;;;;;5024019;28;20228;-79
2022/11/25 13:02:49;;;;;;;6.68;3.10;;;8.60;99.90;;;;;;5026847;28;20197;-81
2022/11/25 13:05:48;;;;;;;11.40;3.92;;;8.60;99.90;;;;;;5023631;28;20288;-80
2022/11/25 13:08:34;;;;;;;6.63;4.32;;;8.60;99.90;;;;;;5033644;28;20182;-81
2022/11/25 13:11:07;;;;;;;11.43;4.30;;;8.70;99.90;;;;;;5026221;28;20212;-82
2022/11/25 13:13:52;;;;;;;9.52;3.50;;;8.70;99.90;;;;;;5026887;28;20212;-82